createdAt,value
2022-10-22T00:01:29.497Z,16.73
2022-10-22T00:04:34.565Z,12.32
2022-10-22T00:07:38.183Z,13.87
2022-10-22T00:10:41.261Z,12.77
2022-10-22T00:13:43.782Z,13.65
2022-10-22T00:16:56.447Z,11.65
2022-10-22T00:19:58.920Z,12.65
2022-10-22T00:23:01.243Z,10.40
2022-10-22T00:26:04.232Z,13.43
2022-10-22T00:29:06.672Z,13.60
2022-10-22T00:32:09.045Z,11.05
2022-10-22T00:35:11.766Z,12.27
2022-10-22T00:38:15.038Z,12.03
2022-10-22T00:41:17.627Z,12.00
2022-10-22T00:44:57.374Z,11.77
2022-10-22T00:48:09.286Z,12.60
2022-10-22T00:51:11.900Z,11.77
2022-10-22T00:54:14.242Z,12.03
2022-10-22T00:57:17.112Z,13.07
2022-10-22T01:00:21.933Z,14.13
2022-10-22T01:03:24.337Z,12.23
2022-10-22T01:06:29.178Z,13.48
2022-10-22T01:09:41.089Z,15.30
2022-10-22T01:12:57.487Z,14.63
2022-10-22T01:16:18.927Z,14.52
2022-10-22T01:19:43.632Z,12.95
2022-10-22T01:23:03.256Z,12.20
2022-10-22T01:26:46.280Z,10.37
2022-10-22T01:30:03.298Z,11.83
2022-10-22T01:33:07.450Z,13.85
2022-10-22T01:36:10.327Z,10.43
2022-10-22T01:39:14.587Z,12.90
2022-10-22T01:42:16.895Z,14.07
2022-10-22T01:45:19.285Z,13.20
2022-10-22T01:48:51.023Z,11.02
2022-10-22T01:52:14.628Z,13.23
2022-10-22T01:55:31.425Z,11.30
2022-10-22T01:59:00.237Z,12.70
2022-10-22T02:02:21.868Z,11.57
2022-10-22T02:05:30.569Z,10.70
2022-10-22T02:08:34.132Z,12.95
2022-10-22T02:11:36.636Z,11.65
2022-10-22T02:14:41.727Z,10.50
2022-10-22T02:17:45.516Z,10.67
2022-10-22T02:20:49.196Z,12.18
2022-10-22T02:23:52.023Z,9.27
2022-10-22T02:27:03.440Z,10.48
2022-10-22T02:30:11.901Z,10.43
2022-10-22T02:33:23.336Z,10.73
2022-10-22T02:36:26.312Z,10.30
2022-10-22T02:39:30.545Z,11.05
2022-10-22T02:42:33.820Z,12.20
2022-10-22T02:45:36.533Z,11.60
2022-10-22T02:48:40.336Z,10.77
2022-10-22T02:51:42.666Z,10.57
2022-10-22T02:54:45.054Z,9.13
2022-10-22T02:57:47.548Z,10.35
2022-10-22T03:00:50.076Z,10.13
2022-10-22T03:03:52.422Z,10.70
2022-10-22T03:06:54.892Z,11.35
2022-10-22T03:09:57.237Z,11.65
2022-10-22T03:12:59.561Z,11.35
2022-10-22T03:16:02.511Z,12.07
2022-10-22T03:19:04.940Z,11.13
2022-10-22T03:22:12.124Z,11.20
2022-10-22T03:25:19.411Z,10.60
2022-10-22T03:28:22.149Z,15.05
2022-10-22T03:31:24.523Z,12.50
2022-10-22T03:34:27.074Z,11.90
2022-10-22T03:37:30.324Z,12.43
2022-10-22T03:40:32.580Z,10.57
2022-10-22T03:43:36.100Z,12.13
2022-10-22T03:46:38.452Z,11.60
2022-10-22T03:49:40.849Z,11.30
2022-10-22T03:52:43.391Z,12.77
2022-10-22T03:55:45.805Z,14.05
2022-10-22T03:58:52.225Z,15.77
2022-10-22T04:01:54.571Z,12.77
2022-10-22T04:04:56.830Z,13.87
2022-10-22T04:07:59.818Z,12.35
2022-10-22T04:11:02.712Z,13.55
2022-10-22T04:14:05.236Z,12.90
2022-10-22T04:17:07.491Z,15.07
2022-10-22T04:20:13.220Z,16.03
2022-10-22T04:23:15.535Z,14.10
2022-10-22T04:26:18.825Z,14.65
2022-10-22T04:29:21.221Z,13.98
2022-10-22T04:32:23.723Z,15.40
2022-10-22T04:35:26.692Z,13.40
2022-10-22T04:38:28.941Z,15.88
2022-10-22T04:41:37.236Z,14.32
2022-10-22T04:44:39.532Z,12.95
2022-10-22T04:47:42.112Z,13.93
2022-10-22T04:50:44.616Z,13.93
2022-10-22T04:53:47.559Z,14.88
2022-10-22T04:56:49.928Z,17.15
2022-10-22T04:59:52.561Z,15.18
2022-10-22T05:02:54.919Z,15.60
2022-10-22T05:06:02.007Z,15.83
2022-10-22T05:09:07.393Z,16.25
2022-10-22T05:12:09.962Z,14.15
2022-10-22T05:15:12.222Z,17.77
2022-10-22T05:18:16.827Z,17.10
2022-10-22T05:21:22.613Z,17.43
2022-10-22T05:24:27.552Z,18.58
2022-10-22T05:27:30.412Z,18.38
2022-10-22T05:30:32.742Z,16.23
2022-10-22T05:33:35.154Z,18.13
2022-10-22T05:36:38.313Z,17.03
2022-10-22T05:39:41.691Z,20.30
2022-10-22T05:42:43.957Z,17.50
2022-10-22T05:45:46.344Z,17.77
2022-10-22T05:48:52.616Z,17.17
2022-10-22T05:51:54.938Z,19.93
2022-10-22T05:54:57.416Z,17.80
2022-10-22T05:57:59.804Z,26.13
2022-10-22T06:01:04.702Z,20.00
2022-10-22T06:04:10.862Z,21.27
2022-10-22T06:07:15.552Z,17.53
2022-10-22T06:10:21.419Z,18.70
2022-10-22T06:13:25.087Z,18.63
2022-10-22T06:16:32.194Z,19.77
2022-10-22T06:19:58.992Z,18.33
2022-10-22T06:23:04.870Z,18.47
2022-10-22T06:26:08.731Z,18.95
2022-10-22T06:29:19.606Z,16.40
2022-10-22T06:32:22.306Z,17.92
2022-10-22T06:35:25.535Z,12.20
2022-10-22T06:38:30.879Z,15.03
2022-10-22T06:41:33.461Z,15.20
2022-10-22T06:44:36.174Z,15.52
2022-10-22T06:47:39.120Z,15.80
2022-10-22T06:50:42.080Z,18.20
2022-10-22T06:53:44.431Z,16.60
2022-10-22T06:56:46.770Z,14.95
2022-10-22T06:59:49.368Z,15.80
2022-10-22T07:02:56.464Z,21.73
2022-10-22T07:06:02.770Z,30.30
2022-10-22T07:09:05.362Z,18.87
2022-10-22T07:12:08.850Z,19.52
2022-10-22T07:15:11.633Z,20.52
2022-10-22T07:18:13.917Z,20.70
2022-10-22T07:21:17.999Z,18.90
2022-10-22T07:24:20.252Z,20.30
2022-10-22T07:27:22.437Z,21.38
2022-10-22T07:30:24.853Z,18.40
2022-10-22T07:33:27.437Z,17.83
2022-10-22T07:36:29.642Z,21.47
2022-10-22T07:39:31.933Z,16.67
2022-10-22T07:42:34.239Z,18.45
2022-10-22T07:45:36.551Z,17.38
2022-10-22T07:48:39.303Z,16.30
2022-10-22T07:51:41.637Z,15.97
2022-10-22T07:54:43.849Z,14.27
2022-10-22T07:57:46.067Z,12.63
2022-10-22T08:00:49.502Z,13.82
2022-10-22T08:03:51.900Z,13.23
2022-10-22T08:06:54.080Z,12.57
2022-10-22T08:09:56.909Z,13.93
2022-10-22T08:12:59.173Z,13.05
2022-10-22T08:16:01.737Z,13.57
2022-10-22T08:19:04.007Z,13.45
2022-10-22T08:22:06.362Z,14.20
2022-10-22T08:25:09.010Z,14.27
2022-10-22T08:28:11.307Z,13.18
2022-10-22T08:31:13.907Z,12.73
2022-10-22T08:34:17.181Z,13.13
2022-10-22T08:37:19.434Z,14.37
2022-10-22T08:40:28.859Z,12.23
2022-10-22T08:43:33.958Z,12.65
2022-10-22T08:46:54.634Z,14.55
2022-10-22T08:49:59.503Z,13.25
2022-10-22T08:53:07.280Z,14.70
2022-10-22T08:56:09.566Z,14.67
2022-10-22T08:59:19.151Z,14.75
2022-10-22T09:02:38.829Z,15.50
2022-10-22T09:06:10.983Z,14.43
2022-10-22T09:09:17.090Z,14.73
2022-10-22T09:12:29.065Z,13.83
2022-10-22T09:15:31.537Z,14.65
2022-10-22T09:18:40.419Z,13.75
2022-10-22T09:21:58.571Z,14.35
2022-10-22T09:25:31.640Z,12.50
2022-10-22T09:28:34.146Z,12.70
2022-10-22T09:31:36.558Z,14.57
2022-10-22T09:34:39.370Z,15.77
2022-10-22T09:37:50.526Z,14.48
2022-10-22T09:40:55.062Z,25.03
2022-10-22T09:43:58.269Z,19.43
2022-10-22T09:47:42.553Z,25.10
2022-10-22T09:50:56.341Z,15.85
2022-10-22T09:54:01.672Z,18.35
2022-10-22T09:57:07.075Z,16.30
2022-10-22T10:00:11.138Z,20.33
2022-10-22T10:03:19.010Z,14.43
2022-10-22T10:06:22.840Z,18.80
2022-10-22T10:09:27.117Z,16.63
2022-10-22T10:12:41.449Z,15.43
2022-10-22T10:15:56.542Z,17.60
2022-10-22T10:19:35.405Z,19.75
2022-10-22T10:23:10.402Z,17.58
2022-10-22T10:26:19.590Z,16.75
2022-10-22T10:29:31.968Z,25.53
2022-10-22T10:32:48.241Z,15.67
2022-10-22T10:36:14.870Z,18.15
2022-10-22T10:39:35.526Z,14.57
2022-10-22T10:42:49.122Z,14.63
2022-10-22T10:46:21.181Z,14.37
2022-10-22T10:49:24.885Z,18.47
2022-10-22T10:52:41.663Z,15.00
2022-10-22T10:55:55.431Z,17.85
2022-10-22T10:59:21.241Z,14.77
2022-10-22T11:02:45.301Z,18.90
2022-10-22T11:05:56.094Z,16.43
2022-10-22T11:09:03.505Z,15.00
2022-10-22T11:12:10.537Z,16.10
2022-10-22T11:15:33.962Z,17.42
2022-10-22T11:18:40.840Z,17.93
2022-10-22T11:21:50.119Z,24.83
2022-10-22T11:25:06.696Z,18.20
2022-10-22T11:28:16.609Z,21.77
2022-10-22T11:31:20.305Z,18.13
2022-10-22T11:34:37.869Z,21.57
2022-10-22T11:37:40.516Z,17.70
2022-10-22T11:40:48.145Z,28.38
2022-10-22T11:44:06.560Z,17.35
2022-10-22T11:47:18.139Z,16.90
2022-10-22T11:50:25.524Z,16.23
2022-10-22T11:53:34.763Z,19.90
2022-10-22T11:56:39.388Z,19.20
2022-10-22T11:59:59.573Z,19.65
2022-10-22T12:03:04.492Z,17.60
2022-10-22T12:06:13.313Z,18.30
2022-10-22T12:09:19.045Z,18.13
2022-10-22T12:12:21.274Z,17.52
2022-10-22T12:15:27.973Z,17.42
2022-10-22T12:18:41.063Z,16.55
2022-10-22T12:21:48.664Z,18.43
2022-10-22T12:24:57.300Z,18.60
2022-10-22T12:28:01.026Z,18.05
2022-10-22T12:31:03.495Z,23.23
2022-10-22T12:34:06.185Z,20.10
2022-10-22T12:37:11.052Z,17.70
2022-10-22T12:40:22.102Z,17.80
2022-10-22T12:43:29.453Z,18.77
2022-10-22T12:46:34.088Z,21.10
2022-10-22T12:49:41.376Z,19.92
2022-10-22T12:52:43.867Z,17.10
2022-10-22T12:55:51.590Z,19.43
2022-10-22T12:58:59.609Z,16.42
2022-10-22T13:02:02.240Z,16.55
2022-10-22T13:05:13.540Z,20.85
2022-10-22T13:08:22.255Z,17.03
2022-10-22T13:11:31.669Z,46.07
2022-10-22T13:14:35.698Z,19.08
2022-10-22T13:17:38.089Z,54.30
2022-10-22T13:20:53.946Z,89.60
2022-10-22T13:24:01.794Z,24.67
2022-10-22T13:27:03.943Z,18.07
2022-10-22T13:30:22.027Z,20.33
2022-10-22T13:33:26.318Z,21.20
2022-10-22T13:36:29.058Z,23.20
2022-10-22T13:39:32.830Z,25.17
2022-10-22T13:42:36.080Z,18.87
2022-10-22T13:45:38.391Z,18.02
2022-10-22T13:48:41.006Z,27.92
2022-10-22T13:51:43.778Z,19.90
2022-10-22T13:54:46.052Z,17.07
2022-10-22T13:57:49.603Z,20.40
2022-10-22T14:00:55.808Z,24.27
2022-10-22T14:04:00.310Z,20.77
2022-10-22T14:07:03.890Z,18.02
2022-10-22T14:10:21.242Z,19.03
2022-10-22T14:13:23.520Z,19.07
2022-10-22T14:16:27.655Z,19.00
2022-10-22T14:19:30.642Z,23.52
2022-10-22T14:22:33.543Z,21.70
2022-10-22T14:25:35.761Z,20.73
2022-10-22T14:28:46.175Z,23.10
2022-10-22T14:32:25.383Z,21.15
2022-10-22T14:35:28.373Z,18.70
2022-10-22T14:38:30.629Z,19.25
2022-10-22T14:41:33.311Z,20.97
2022-10-22T14:44:38.402Z,23.57
2022-10-22T14:47:44.422Z,27.30
2022-10-22T14:50:47.927Z,25.98
2022-10-22T14:53:50.559Z,22.65
2022-10-22T14:56:52.865Z,23.27
2022-10-22T14:59:55.078Z,21.00
2022-10-22T15:03:03.318Z,21.98
2022-10-22T15:06:07.425Z,24.23
2022-10-22T15:09:09.921Z,24.38
2022-10-22T15:12:12.428Z,25.27
2022-10-22T15:15:16.502Z,28.30
2022-10-22T15:18:20.962Z,25.63
2022-10-22T15:21:23.936Z,24.63
2022-10-22T15:24:26.290Z,26.08
2022-10-22T15:27:28.991Z,22.50
2022-10-22T15:30:31.567Z,21.87
2022-10-22T15:33:34.328Z,20.92
2022-10-22T15:36:36.773Z,19.77
2022-10-22T15:39:40.828Z,18.83
2022-10-22T15:43:35.066Z,18.57
2022-10-22T15:47:03.420Z,20.20
2022-10-22T15:50:30.298Z,21.42
2022-10-22T15:53:42.822Z,21.95
2022-10-22T15:56:45.737Z,25.48
2022-10-22T15:59:50.334Z,25.03
2022-10-22T16:02:54.506Z,26.67
2022-10-22T16:05:58.854Z,27.90
2022-10-22T16:09:02.821Z,29.65
2022-10-22T16:12:05.487Z,26.20
2022-10-22T16:15:09.485Z,29.10
2022-10-22T16:18:12.210Z,28.03
2022-10-22T16:21:15.629Z,28.77
2022-10-22T16:24:18.250Z,25.75
2022-10-22T16:27:20.518Z,26.83
2022-10-22T16:30:22.754Z,33.10
2022-10-22T16:33:25.023Z,29.67
2022-10-22T16:36:27.264Z,28.88
2022-10-22T16:39:29.578Z,32.08
2022-10-22T16:42:31.699Z,31.92
2022-10-22T16:45:33.949Z,30.70
2022-10-22T16:48:40.438Z,36.93
2022-10-22T16:51:42.628Z,36.05
2022-10-22T16:54:46.819Z,34.63
2022-10-22T16:57:52.434Z,35.50
2022-10-22T17:01:07.323Z,35.00
2022-10-22T17:04:09.969Z,40.93
2022-10-22T17:07:12.318Z,37.00
2022-10-22T17:10:15.230Z,37.40
2022-10-22T17:13:18.008Z,34.15
2022-10-22T17:16:22.907Z,36.30
2022-10-22T17:19:26.780Z,48.40
2022-10-22T17:22:29.735Z,47.80
2022-10-22T17:25:43.859Z,43.38
2022-10-22T17:28:49.917Z,38.50
2022-10-22T17:31:53.131Z,39.90
2022-10-22T17:34:55.534Z,38.77
2022-10-22T17:37:58.127Z,39.17
2022-10-22T17:41:04.109Z,44.85
2022-10-22T17:44:12.302Z,49.15
2022-10-22T17:47:15.376Z,49.73
2022-10-22T17:50:19.514Z,55.27
2022-10-22T17:53:22.399Z,48.60
2022-10-22T17:56:26.893Z,42.65
2022-10-22T17:59:29.301Z,44.60
2022-10-22T18:02:31.925Z,49.27
2022-10-22T18:05:34.725Z,49.03
2022-10-22T18:08:37.761Z,48.47
2022-10-22T18:11:41.507Z,49.80
2022-10-22T18:14:44.171Z,53.67
2022-10-22T18:17:47.423Z,52.77
2022-10-22T18:20:51.123Z,47.73
2022-10-22T18:23:54.262Z,47.95
2022-10-22T18:26:59.219Z,52.92
2022-10-22T18:30:03.444Z,50.78
2022-10-22T18:33:06.129Z,54.33
2022-10-22T18:36:11.184Z,51.00
2022-10-22T18:39:17.325Z,55.30
2022-10-22T18:42:20.128Z,53.45
2022-10-22T18:45:24.555Z,50.45
2022-10-22T18:48:27.590Z,50.43
2022-10-22T18:51:31.314Z,47.73
2022-10-22T18:54:33.955Z,48.15
2022-10-22T18:57:36.592Z,50.80
2022-10-22T19:00:40.400Z,50.50
2022-10-22T19:03:43.739Z,50.33
2022-10-22T19:06:46.447Z,44.80
2022-10-22T19:09:48.683Z,42.60
2022-10-22T19:12:50.912Z,45.10
2022-10-22T19:15:53.510Z,44.33
2022-10-22T19:19:01.570Z,40.70
2022-10-22T19:22:04.989Z,41.07
2022-10-22T19:25:11.909Z,43.05
2022-10-22T19:28:15.013Z,45.55
2022-10-22T19:31:20.257Z,50.75
2022-10-22T19:34:22.932Z,57.13
2022-10-22T19:37:25.490Z,45.73
2022-10-22T19:40:29.689Z,45.92
2022-10-22T19:43:32.236Z,46.90
2022-10-22T19:46:35.441Z,45.13
2022-10-22T19:49:38.171Z,43.70
2022-10-22T19:52:42.627Z,55.87
2022-10-22T19:55:49.279Z,52.72
2022-10-22T19:58:55.771Z,56.65
2022-10-22T20:01:59.130Z,57.20
2022-10-22T20:05:01.986Z,56.40
2022-10-22T20:08:04.488Z,56.80
2022-10-22T20:11:15.551Z,51.17
2022-10-22T20:14:19.871Z,51.72
2022-10-22T20:17:22.472Z,50.67
2022-10-22T20:20:26.547Z,43.50
2022-10-22T20:23:29.289Z,45.63
2022-10-22T20:26:31.914Z,47.10
2022-10-22T20:29:34.392Z,45.78
2022-10-22T20:32:38.566Z,43.05
2022-10-22T20:35:41.428Z,47.27
2022-10-22T20:38:48.549Z,59.53
2022-10-22T20:41:51.699Z,56.58
2022-10-22T20:44:54.324Z,54.65
2022-10-22T20:48:02.696Z,50.95
2022-10-22T20:51:05.615Z,56.77
2022-10-22T20:54:09.003Z,67.30
2022-10-22T20:57:12.587Z,65.20
2022-10-22T21:00:15.330Z,73.47
2022-10-22T21:03:17.590Z,89.88
2022-10-22T21:06:23.412Z,79.73
2022-10-22T21:09:25.746Z,65.83
2022-10-22T21:12:27.990Z,69.65
2022-10-22T21:15:30.454Z,67.82
2022-10-22T21:18:33.517Z,63.33
2022-10-22T21:21:35.763Z,62.03
2022-10-22T21:24:38.018Z,65.50
2022-10-22T21:27:42.400Z,65.03
2022-10-22T21:30:45.705Z,64.97
2022-10-22T21:33:50.704Z,63.28
2022-10-22T21:36:53.081Z,62.50
2022-10-22T21:39:55.878Z,59.07
2022-10-22T21:42:58.022Z,66.30
2022-10-22T21:46:07.754Z,66.82
2022-10-22T21:49:10.952Z,68.13
2022-10-22T21:52:13.155Z,65.67
2022-10-22T21:55:15.354Z,63.37
2022-10-22T21:58:17.804Z,60.40
2022-10-22T22:01:20.505Z,50.95
2022-10-22T22:04:22.651Z,55.50
2022-10-22T22:07:24.789Z,60.70
2022-10-22T22:10:27.260Z,70.53
2022-10-22T22:13:29.518Z,81.45
2022-10-22T22:16:32.998Z,95.40
2022-10-22T22:19:35.272Z,93.72
2022-10-22T22:22:37.435Z,79.37
2022-10-22T22:25:39.550Z,84.63
2022-10-22T22:28:41.767Z,96.68
2022-10-22T22:31:45.923Z,89.20
2022-10-22T22:34:48.106Z,93.05
2022-10-22T22:37:50.373Z,96.13
2022-10-22T22:40:52.527Z,82.40
2022-10-22T22:46:57.764Z,64.47
2022-10-22T22:49:59.933Z,66.15
2022-10-22T22:53:02.143Z,64.93
2022-10-22T22:56:10.086Z,69.40
2022-10-22T22:59:12.323Z,72.60
2022-10-22T23:02:15.042Z,73.60
2022-10-22T23:05:17.278Z,64.40
2022-10-22T23:08:19.443Z,66.97
2022-10-22T23:11:22.853Z,63.73
2022-10-22T23:14:25.166Z,62.55
2022-10-22T23:17:27.369Z,66.40
2022-10-22T23:20:29.610Z,64.93
2022-10-22T23:23:32.792Z,68.67
2022-10-22T23:26:40.440Z,64.50
2022-10-22T23:29:42.570Z,63.63
2022-10-22T23:32:45.051Z,64.95
2022-10-22T23:35:47.279Z,66.50
2022-10-22T23:38:50.367Z,65.13
2022-10-22T23:41:53.506Z,65.90
2022-10-22T23:44:55.736Z,64.95
2022-10-22T23:47:57.917Z,64.10
2022-10-22T23:51:11.453Z,62.42
2022-10-22T23:54:16.442Z,69.53
2022-10-22T23:57:18.720Z,56.80
